createdAt,value
2023-02-27T00:00:57.546Z,35.05
2023-02-27T00:03:26.202Z,34.98
2023-02-27T00:05:56.649Z,35.10
2023-02-27T00:08:25.296Z,34.97
2023-02-27T00:10:54.015Z,35.03
2023-02-27T00:13:23.271Z,35.19
2023-02-27T00:15:52.111Z,34.97
2023-02-27T00:18:20.947Z,34.86
2023-02-27T00:20:49.838Z,35.02
2023-02-27T00:23:19.455Z,35.03
2023-02-27T00:25:48.360Z,35.08
2023-02-27T00:28:17.966Z,34.91
2023-02-27T00:30:46.536Z,34.94
2023-02-27T00:33:15.811Z,34.98
2023-02-27T00:35:44.015Z,35.01
2023-02-27T00:38:12.312Z,34.97
2023-02-27T00:40:42.288Z,35.02
2023-02-27T00:43:11.237Z,35.01
2023-02-27T00:45:39.931Z,34.96
2023-02-27T00:48:08.139Z,34.95
2023-02-27T00:50:36.369Z,34.98
2023-02-27T00:53:04.918Z,34.95
2023-02-27T00:55:33.449Z,34.89
2023-02-27T00:58:04.292Z,34.94
2023-02-27T01:00:38.082Z,34.73
2023-02-27T01:03:06.987Z,34.87
2023-02-27T01:05:35.819Z,34.96
2023-02-27T01:08:04.196Z,34.92
2023-02-27T01:10:32.520Z,34.98
2023-02-27T01:13:00.734Z,34.90
2023-02-27T01:15:32.133Z,34.98
2023-02-27T01:18:00.949Z,35.04
2023-02-27T01:20:30.178Z,34.95
2023-02-27T01:22:58.913Z,35.02
2023-02-27T01:25:27.690Z,34.96
2023-02-27T01:27:55.828Z,34.97
2023-02-27T01:30:24.089Z,34.93
2023-02-27T01:32:54.433Z,35.02
2023-02-27T01:35:23.515Z,34.87
2023-02-27T01:37:52.313Z,34.99
2023-02-27T01:40:22.454Z,35.08
2023-02-27T01:42:50.915Z,35.04
2023-02-27T01:45:37.348Z,34.86
2023-02-27T01:48:13.979Z,34.79
2023-02-27T01:50:49.218Z,34.95
2023-02-27T01:53:20.656Z,34.79
2023-02-27T01:55:52.946Z,34.94
2023-02-27T01:58:21.753Z,34.77
2023-02-27T02:00:50.560Z,34.82
2023-02-27T02:03:29.285Z,34.89
2023-02-27T02:05:59.637Z,34.81
2023-02-27T02:08:32.637Z,34.78
2023-02-27T02:11:02.375Z,34.76
2023-02-27T02:13:32.132Z,34.93
2023-02-27T02:16:24.069Z,34.75
2023-02-27T02:19:01.283Z,34.86
2023-02-27T02:22:01.770Z,34.77
2023-02-27T02:25:12.746Z,34.72
2023-02-27T02:27:52.756Z,34.76
2023-02-27T02:30:48.378Z,34.70
2023-02-27T02:34:08.644Z,34.61
2023-02-27T02:37:09.117Z,34.58
2023-02-27T02:39:56.135Z,34.86
2023-02-27T02:42:29.675Z,34.79
2023-02-27T02:45:11.304Z,34.95
2023-02-27T02:47:48.872Z,34.72
2023-02-27T02:50:26.391Z,34.69
2023-02-27T02:53:03.023Z,34.96
2023-02-27T02:55:39.327Z,34.77
2023-02-27T02:58:15.633Z,34.79
2023-02-27T03:00:49.508Z,34.88
2023-02-27T03:03:24.207Z,34.85
2023-02-27T03:05:58.475Z,34.94
2023-02-27T03:08:30.610Z,34.93
2023-02-27T03:11:03.774Z,34.70
2023-02-27T03:13:38.687Z,34.76
2023-02-27T03:16:14.946Z,34.90
2023-02-27T03:18:49.243Z,34.75
2023-02-27T03:21:24.124Z,34.79
2023-02-27T03:23:57.781Z,34.74
2023-02-27T03:26:35.397Z,34.79
2023-02-27T03:29:07.977Z,34.74
2023-02-27T03:31:43.613Z,34.83
2023-02-27T03:34:19.136Z,34.82
2023-02-27T03:36:51.972Z,34.78
2023-02-27T03:39:31.479Z,34.72
2023-02-27T03:42:11.684Z,34.68
2023-02-27T03:44:52.511Z,34.78
2023-02-27T03:47:21.544Z,34.80
2023-02-27T03:49:52.299Z,34.59
2023-02-27T03:52:24.737Z,34.75
2023-02-27T03:54:58.709Z,34.71
2023-02-27T03:57:30.205Z,34.80
2023-02-27T03:59:59.185Z,34.86
2023-02-27T04:02:28.560Z,34.73
2023-02-27T04:04:56.849Z,34.82
2023-02-27T04:07:32.259Z,34.88
2023-02-27T04:10:26.188Z,34.67
2023-02-27T04:13:20.037Z,34.62
2023-02-27T04:16:15.907Z,34.63
2023-02-27T04:19:04.730Z,34.84
2023-02-27T04:21:40.442Z,34.68
2023-02-27T04:24:22.195Z,34.71
2023-02-27T04:26:55.621Z,34.70
2023-02-27T04:29:34.493Z,34.79
2023-02-27T04:32:07.669Z,34.76
2023-02-27T04:34:40.648Z,34.89
2023-02-27T04:37:13.250Z,34.76
2023-02-27T04:39:47.381Z,34.68
2023-02-27T04:42:19.329Z,34.94
2023-02-27T04:44:50.535Z,34.73
2023-02-27T04:47:20.620Z,34.70
2023-02-27T04:49:53.128Z,34.90
2023-02-27T04:52:25.934Z,34.78
2023-02-27T04:55:03.214Z,34.83
2023-02-27T04:57:35.970Z,34.76
2023-02-27T05:00:12.811Z,34.83
2023-02-27T05:03:04.949Z,34.57
2023-02-27T05:05:37.449Z,34.68
2023-02-27T05:08:10.445Z,34.86
2023-02-27T05:10:44.367Z,34.84
2023-02-27T05:13:16.315Z,34.80
2023-02-27T05:15:50.794Z,34.68
2023-02-27T05:18:22.169Z,34.70
2023-02-27T05:21:00.933Z,34.79
2023-02-27T05:23:37.899Z,34.71
2023-02-27T05:26:19.058Z,34.92
2023-02-27T05:28:55.543Z,34.56
2023-02-27T05:31:29.866Z,34.67
2023-02-27T05:34:02.415Z,34.83
2023-02-27T05:36:36.041Z,34.81
2023-02-27T05:39:07.417Z,34.83
2023-02-27T05:41:43.746Z,34.89
2023-02-27T05:44:15.353Z,34.92
2023-02-27T05:46:49.066Z,34.93
2023-02-27T05:49:19.962Z,34.90
2023-02-27T05:51:51.281Z,34.85
2023-02-27T05:54:25.661Z,34.86
2023-02-27T05:56:55.961Z,34.88
2023-02-27T05:59:30.039Z,34.76
2023-02-27T06:01:59.605Z,34.90
2023-02-27T06:04:30.233Z,34.80
2023-02-27T06:06:59.494Z,34.89
2023-02-27T06:09:29.876Z,34.94
2023-02-27T06:11:59.426Z,34.93
2023-02-27T06:14:27.572Z,34.72
2023-02-27T06:16:56.162Z,34.81
2023-02-27T06:19:26.447Z,34.91
2023-02-27T06:21:54.478Z,34.86
2023-02-27T06:24:23.155Z,34.92
2023-02-27T06:26:51.251Z,34.85
2023-02-27T06:29:19.882Z,34.91
2023-02-27T06:31:50.124Z,34.96
2023-02-27T06:34:18.658Z,35.02
2023-02-27T06:36:48.904Z,34.85
2023-02-27T06:39:17.549Z,34.86
2023-02-27T06:41:45.658Z,34.73
2023-02-27T06:44:14.350Z,34.80
2023-02-27T06:46:42.489Z,34.86
2023-02-27T06:49:10.806Z,35.07
2023-02-27T06:51:39.529Z,34.81
2023-02-27T06:54:10.758Z,34.88
2023-02-27T06:56:38.866Z,34.84
2023-02-27T06:59:07.591Z,34.88
2023-02-27T07:01:36.303Z,34.91
2023-02-27T07:04:07.186Z,34.85
2023-02-27T07:07:35.226Z,35.00
2023-02-27T07:09:25.398Z,34.78
2023-02-27T07:11:53.571Z,34.81
2023-02-27T07:14:23.037Z,34.81
2023-02-27T07:16:56.167Z,34.86
2023-02-27T07:19:25.951Z,34.85
2023-02-27T07:21:55.439Z,34.97
2023-02-27T07:24:24.991Z,34.94
2023-02-27T07:26:54.121Z,34.80
2023-02-27T07:29:22.354Z,34.73
2023-02-27T07:31:50.669Z,34.86
2023-02-27T07:34:19.020Z,34.76
2023-02-27T07:36:47.387Z,34.88
2023-02-27T07:39:16.397Z,34.74
2023-02-27T07:41:46.173Z,34.89
2023-02-27T07:44:14.868Z,34.84
2023-02-27T07:46:45.468Z,34.78
2023-02-27T07:49:14.092Z,34.74
2023-02-27T07:51:44.459Z,34.84
2023-02-27T07:54:13.171Z,34.81
2023-02-27T07:56:42.597Z,34.90
2023-02-27T07:59:13.368Z,34.71
2023-02-27T08:01:41.570Z,34.75
2023-02-27T08:04:10.265Z,34.80
2023-02-27T08:06:38.700Z,34.69
2023-02-27T08:09:07.862Z,34.70
2023-02-27T08:11:36.431Z,34.75
2023-02-27T08:14:05.064Z,34.80
2023-02-27T08:16:34.922Z,34.81
2023-02-27T08:19:04.380Z,34.76
2023-02-27T08:21:33.251Z,34.90
2023-02-27T08:24:03.009Z,34.76
2023-02-27T08:26:32.712Z,34.90
2023-02-27T08:29:00.913Z,34.89
2023-02-27T08:31:29.953Z,34.85
2023-02-27T08:34:09.811Z,34.72
2023-02-27T08:36:38.809Z,34.71
2023-02-27T08:39:08.058Z,34.71
2023-02-27T08:41:37.267Z,34.74
2023-02-27T08:44:06.440Z,34.75
2023-02-27T08:46:34.912Z,34.89
2023-02-27T08:49:05.431Z,34.64
2023-02-27T08:51:34.060Z,34.84
2023-02-27T08:54:04.088Z,34.67
2023-02-27T08:56:34.041Z,34.77
2023-02-27T08:59:02.900Z,34.71
2023-02-27T09:01:34.589Z,34.84
2023-02-27T09:04:06.864Z,34.73
2023-02-27T09:06:36.819Z,34.81
2023-02-27T09:09:06.097Z,34.74
2023-02-27T09:11:34.402Z,34.69
2023-02-27T09:14:03.706Z,34.91
2023-02-27T09:16:32.486Z,34.97
2023-02-27T09:19:00.737Z,34.71
2023-02-27T09:21:30.308Z,34.73
2023-02-27T09:24:10.151Z,34.74
2023-02-27T09:26:46.748Z,34.79
2023-02-27T09:29:15.257Z,34.74
2023-02-27T09:31:43.430Z,34.83
2023-02-27T09:34:11.595Z,34.81
2023-02-27T09:36:41.224Z,34.68
2023-02-27T09:39:14.193Z,34.89
2023-02-27T09:41:58.656Z,34.81
2023-02-27T09:44:45.577Z,34.80
2023-02-27T09:47:19.068Z,34.84
2023-02-27T09:50:01.586Z,34.67
2023-02-27T09:52:34.130Z,34.79
2023-02-27T09:55:02.496Z,34.79
2023-02-27T09:57:42.391Z,34.89
2023-02-27T10:00:30.867Z,34.94
2023-02-27T10:03:10.855Z,35.00
2023-02-27T10:05:47.145Z,34.80
2023-02-27T10:08:24.469Z,34.95
2023-02-27T10:11:01.579Z,34.81
2023-02-27T10:13:51.183Z,34.80
2023-02-27T10:16:22.196Z,34.89
2023-02-27T10:18:59.056Z,34.91
2023-02-27T10:21:34.549Z,34.71
2023-02-27T10:24:12.456Z,34.83
2023-02-27T10:26:46.058Z,34.88
2023-02-27T10:29:19.393Z,34.93
2023-02-27T10:31:52.956Z,34.91
2023-02-27T10:34:24.525Z,34.90
2023-02-27T10:36:53.207Z,34.95
2023-02-27T10:39:24.728Z,34.91
2023-02-27T10:41:53.575Z,34.92
2023-02-27T10:44:21.954Z,34.94
2023-02-27T10:46:51.990Z,34.82
2023-02-27T10:49:22.679Z,35.04
2023-02-27T10:52:08.627Z,34.84
2023-02-27T10:54:40.347Z,34.94
2023-02-27T10:57:23.231Z,34.92
2023-02-27T10:59:54.598Z,35.12
2023-02-27T11:02:27.424Z,35.06
2023-02-27T11:04:58.611Z,35.08
2023-02-27T11:07:33.280Z,35.02
2023-02-27T11:10:17.605Z,35.03
2023-02-27T11:13:01.437Z,34.93
2023-02-27T11:15:33.863Z,35.01
2023-02-27T11:18:27.385Z,35.08
2023-02-27T11:21:09.731Z,34.88
2023-02-27T11:23:38.430Z,35.12
2023-02-27T11:26:18.756Z,35.06
2023-02-27T11:28:47.230Z,34.98
2023-02-27T11:31:20.800Z,35.02
2023-02-27T11:33:56.311Z,35.10
2023-02-27T11:36:39.661Z,35.13
2023-02-27T11:39:08.317Z,35.04
2023-02-27T11:41:44.514Z,35.13
2023-02-27T11:44:27.944Z,35.15
2023-02-27T11:47:14.642Z,35.21
2023-02-27T11:49:58.461Z,35.10
2023-02-27T11:52:36.087Z,35.04
2023-02-27T11:55:09.914Z,35.15
2023-02-27T11:57:44.076Z,35.22
2023-02-27T12:00:20.445Z,35.15
2023-02-27T12:02:58.724Z,35.21
2023-02-27T12:05:30.855Z,35.15
2023-02-27T12:08:05.737Z,35.25
2023-02-27T12:10:42.977Z,35.17
2023-02-27T12:13:20.319Z,35.37
2023-02-27T12:15:56.173Z,35.25
2023-02-27T12:18:30.727Z,35.33
2023-02-27T12:21:03.205Z,35.22
2023-02-27T12:23:38.942Z,35.18
2023-02-27T12:26:13.974Z,35.24
2023-02-27T12:28:55.107Z,35.29
2023-02-27T12:31:39.833Z,35.30
2023-02-27T12:34:17.975Z,35.34
2023-02-27T12:36:48.891Z,35.31
2023-02-27T12:39:20.851Z,35.28
2023-02-27T12:42:17.067Z,35.40
2023-02-27T12:45:16.856Z,35.31
2023-02-27T12:47:55.375Z,35.30
2023-02-27T12:50:25.132Z,35.25
2023-02-27T12:53:06.368Z,35.29
2023-02-27T12:55:39.633Z,35.48
2023-02-27T12:58:34.390Z,35.57
2023-02-27T13:01:12.495Z,35.46
2023-02-27T13:03:50.353Z,35.42
2023-02-27T13:06:26.048Z,35.35
2023-02-27T13:09:10.298Z,35.38
2023-02-27T13:11:50.072Z,35.43
2023-02-27T13:14:32.694Z,35.40
2023-02-27T13:17:07.991Z,35.55
2023-02-27T13:19:44.634Z,35.42
2023-02-27T13:22:19.498Z,35.43
2023-02-27T13:24:58.710Z,35.58
2023-02-27T13:27:32.613Z,35.48
2023-02-27T13:30:15.348Z,35.67
2023-02-27T13:32:51.526Z,35.54
2023-02-27T13:35:32.451Z,35.70
2023-02-27T13:38:03.655Z,35.59
2023-02-27T13:40:38.283Z,35.65
2023-02-27T13:43:31.242Z,35.88
2023-02-27T13:46:00.870Z,35.45
2023-02-27T13:48:46.339Z,35.63
2023-02-27T13:51:48.915Z,35.71
2023-02-27T13:54:23.043Z,35.72
2023-02-27T13:56:52.881Z,35.70
2023-02-27T13:59:24.845Z,35.54
2023-02-27T14:01:55.479Z,35.61
2023-02-27T14:04:27.444Z,35.71
2023-02-27T14:07:00.993Z,35.80
2023-02-27T14:09:37.115Z,35.72
2023-02-27T14:12:08.173Z,35.63
2023-02-27T14:14:41.488Z,35.72
2023-02-27T14:17:12.329Z,35.76
2023-02-27T14:19:57.194Z,35.83
2023-02-27T14:23:00.864Z,35.82
2023-02-27T14:25:34.581Z,35.87
2023-02-27T14:28:03.977Z,35.70
2023-02-27T14:30:40.974Z,35.85
2023-02-27T14:33:33.298Z,35.95
2023-02-27T14:36:10.821Z,35.82
2023-02-27T14:38:40.460Z,35.75
2023-02-27T14:41:29.701Z,35.81
2023-02-27T14:43:59.637Z,35.87
2023-02-27T14:46:31.056Z,35.79
2023-02-27T14:49:01.930Z,35.84
2023-02-27T14:51:34.727Z,35.90
2023-02-27T14:54:05.603Z,35.83
2023-02-27T14:56:34.597Z,35.83
2023-02-27T14:59:05.236Z,35.85
2023-02-27T15:01:37.601Z,35.99
2023-02-27T15:04:08.089Z,35.88
2023-02-27T15:06:46.061Z,35.90
2023-02-27T15:09:24.103Z,35.97
2023-02-27T15:12:03.449Z,35.96
2023-02-27T15:14:36.227Z,35.85
2023-02-27T15:17:04.866Z,35.90
2023-02-27T15:19:33.175Z,35.88
2023-02-27T15:22:05.685Z,36.02
2023-02-27T15:24:49.260Z,35.91
2023-02-27T15:27:21.168Z,35.92
2023-02-27T15:29:52.255Z,35.87
2023-02-27T15:32:27.645Z,35.90
2023-02-27T15:34:56.870Z,35.84
2023-02-27T15:37:28.761Z,35.99
2023-02-27T15:39:57.881Z,35.84
2023-02-27T15:42:28.620Z,35.90
2023-02-27T15:44:58.565Z,35.96
2023-02-27T15:47:29.373Z,35.94
2023-02-27T15:50:01.296Z,36.04
2023-02-27T15:52:40.432Z,36.00
2023-02-27T15:55:15.734Z,35.94
2023-02-27T15:57:56.619Z,36.05
2023-02-27T16:00:32.498Z,36.03
2023-02-27T16:03:01.568Z,36.01
2023-02-27T16:05:35.146Z,35.97
2023-02-27T16:08:05.827Z,35.99
2023-02-27T16:10:38.280Z,35.96
2023-02-27T16:13:22.363Z,36.24
2023-02-27T16:16:01.655Z,36.22
2023-02-27T16:18:34.879Z,36.10
2023-02-27T16:21:14.681Z,36.19
2023-02-27T16:23:45.349Z,36.09
2023-02-27T16:26:29.426Z,36.07
2023-02-27T16:29:01.002Z,35.91
2023-02-27T16:31:31.436Z,36.08
2023-02-27T16:34:01.580Z,36.07
2023-02-27T16:36:56.040Z,36.33
2023-02-27T16:39:46.226Z,36.49
2023-02-27T16:42:15.190Z,36.18
2023-02-27T16:44:43.287Z,36.18
2023-02-27T16:47:11.404Z,36.17
2023-02-27T16:49:40.514Z,36.09
2023-02-27T16:52:11.882Z,36.23
2023-02-27T16:54:42.379Z,36.14
2023-02-27T16:57:11.550Z,36.20
2023-02-27T16:59:42.210Z,36.22
2023-02-27T17:02:14.474Z,36.08
2023-02-27T17:04:47.497Z,36.04
2023-02-27T17:07:29.729Z,36.22
2023-02-27T17:10:00.442Z,36.23
2023-02-27T17:12:30.285Z,36.24
2023-02-27T17:15:06.718Z,36.06
2023-02-27T17:17:35.204Z,36.27
2023-02-27T17:20:06.775Z,36.24
2023-02-27T17:22:36.992Z,36.12
2023-02-27T17:25:08.790Z,36.16
2023-02-27T17:27:38.738Z,36.10
2023-02-27T17:30:08.505Z,36.24
2023-02-27T17:32:37.386Z,36.15
2023-02-27T17:35:06.233Z,36.18
2023-02-27T17:37:35.819Z,36.10
2023-02-27T17:40:05.205Z,36.18
2023-02-27T17:42:37.309Z,36.08
2023-02-27T17:45:07.158Z,36.11
2023-02-27T17:47:36.203Z,36.11
2023-02-27T17:50:05.339Z,36.03
2023-02-27T17:52:34.040Z,36.23
2023-02-27T17:55:03.567Z,36.08
2023-02-27T17:57:32.187Z,36.01
2023-02-27T18:00:04.484Z,36.25
2023-02-27T18:02:36.270Z,36.13
2023-02-27T18:05:06.063Z,36.17
2023-02-27T18:07:34.736Z,36.05
2023-02-27T18:10:03.291Z,36.14
2023-02-27T18:12:32.620Z,36.04
2023-02-27T18:15:02.382Z,36.06
2023-02-27T18:17:30.574Z,36.01
2023-02-27T18:19:59.352Z,36.16
2023-02-27T18:22:33.076Z,36.03
2023-02-27T18:25:01.877Z,36.03
2023-02-27T18:27:30.741Z,36.15
2023-02-27T18:29:59.280Z,36.18
2023-02-27T18:32:32.422Z,36.04
2023-02-27T18:35:00.847Z,36.04
2023-02-27T18:37:29.803Z,36.02
2023-02-27T18:40:01.661Z,36.00
2023-02-27T18:42:30.125Z,36.14
2023-02-27T18:44:58.344Z,36.16
2023-02-27T18:47:30.367Z,36.33
2023-02-27T18:50:01.597Z,36.45
2023-02-27T18:52:31.306Z,36.39
2023-02-27T18:55:00.742Z,36.35
2023-02-27T18:57:29.467Z,36.40
2023-02-27T18:59:57.586Z,36.42
2023-02-27T19:02:25.674Z,36.39
2023-02-27T19:04:53.772Z,36.52
2023-02-27T19:07:23.911Z,36.54
2023-02-27T19:09:51.986Z,36.35
2023-02-27T19:12:20.160Z,36.36
2023-02-27T19:14:49.608Z,36.41
2023-02-27T19:17:17.655Z,36.17
2023-02-27T19:19:45.744Z,36.32
2023-02-27T19:22:13.943Z,36.27
2023-02-27T19:24:44.557Z,36.49
2023-02-27T19:27:13.199Z,36.37
2023-02-27T19:29:41.229Z,36.35
2023-02-27T19:32:09.822Z,36.29
2023-02-27T19:34:38.250Z,36.41
2023-02-27T19:37:06.329Z,36.35
2023-02-27T19:39:34.343Z,36.31
2023-02-27T19:42:03.834Z,36.32
2023-02-27T19:44:31.895Z,36.26
2023-02-27T19:47:00.441Z,36.33
2023-02-27T19:49:28.932Z,36.37
2023-02-27T19:51:56.985Z,36.39
2023-02-27T19:54:25.291Z,36.37
2023-02-27T19:56:54.455Z,36.38
2023-02-27T19:59:24.807Z,36.28
2023-02-27T20:01:53.490Z,36.22
2023-02-27T20:04:21.674Z,36.28
2023-02-27T20:06:53.013Z,36.31
2023-02-27T20:09:23.303Z,36.22
2023-02-27T20:11:55.456Z,36.31
2023-02-27T20:14:25.653Z,36.19
2023-02-27T20:16:54.296Z,36.37
2023-02-27T20:19:24.229Z,36.27
2023-02-27T20:21:52.550Z,36.28
2023-02-27T20:24:22.372Z,36.37
2023-02-27T20:26:52.509Z,36.16
2023-02-27T20:29:22.766Z,36.20
2023-02-27T20:31:54.009Z,36.11
2023-02-27T20:34:25.659Z,36.26
2023-02-27T20:36:55.393Z,36.29
2023-02-27T20:39:24.072Z,36.20
2023-02-27T20:41:52.272Z,36.31
2023-02-27T20:44:20.443Z,36.14
2023-02-27T20:46:49.565Z,36.10
2023-02-27T20:49:19.649Z,36.32
2023-02-27T20:51:47.947Z,36.29
2023-02-27T20:54:20.728Z,36.05
2023-02-27T20:56:52.335Z,36.26
2023-02-27T20:59:21.539Z,36.20
2023-02-27T21:01:52.698Z,36.26
2023-02-27T21:04:25.294Z,36.38
2023-02-27T21:06:54.723Z,36.08
2023-02-27T21:09:22.909Z,36.07
2023-02-27T21:11:51.059Z,36.21
2023-02-27T21:14:19.315Z,36.05
2023-02-27T21:16:47.581Z,36.16
2023-02-27T21:19:16.085Z,36.22
2023-02-27T21:21:45.700Z,36.23
2023-02-27T21:24:14.750Z,36.18
2023-02-27T21:26:43.108Z,36.19
2023-02-27T21:29:14.581Z,36.22
2023-02-27T21:31:45.517Z,36.23
2023-02-27T21:34:15.831Z,36.05
2023-02-27T21:36:46.450Z,36.19
2023-02-27T21:39:17.126Z,36.24
2023-02-27T21:41:46.218Z,36.15
2023-02-27T21:44:16.902Z,36.14
2023-02-27T21:46:46.488Z,36.20
2023-02-27T21:49:19.518Z,36.16
2023-02-27T21:51:49.063Z,36.12
2023-02-27T21:54:18.669Z,36.16
2023-02-27T21:56:47.981Z,36.15
2023-02-27T21:59:17.698Z,36.13
2023-02-27T22:01:47.585Z,36.09
2023-02-27T22:04:16.106Z,36.17
2023-02-27T22:06:44.396Z,36.04
2023-02-27T22:09:14.150Z,36.05
2023-02-27T22:11:42.318Z,36.09
2023-02-27T22:14:11.632Z,36.04
2023-02-27T22:16:40.068Z,36.17
2023-02-27T22:19:08.695Z,35.93
2023-02-27T22:21:38.017Z,36.17
2023-02-27T22:24:07.515Z,35.91
2023-02-27T22:26:37.556Z,36.14
2023-02-27T22:29:06.603Z,36.10
2023-02-27T22:31:37.837Z,35.96
2023-02-27T22:34:08.005Z,36.10
2023-02-27T22:36:38.446Z,36.03
2023-02-27T22:39:07.378Z,36.13
2023-02-27T22:41:39.715Z,36.17
2023-02-27T22:44:09.525Z,36.09
2023-02-27T22:46:39.297Z,36.03
2023-02-27T22:49:11.233Z,36.01
2023-02-27T22:51:39.481Z,36.11
2023-02-27T22:54:08.478Z,36.01
2023-02-27T22:56:38.078Z,36.04
2023-02-27T22:59:07.001Z,36.01
2023-02-27T23:01:37.578Z,36.21
2023-02-27T23:04:08.369Z,35.96
2023-02-27T23:06:40.316Z,36.04
2023-02-27T23:09:10.416Z,35.96
2023-02-27T23:11:40.193Z,35.88
2023-02-27T23:14:08.429Z,36.02
2023-02-27T23:16:37.196Z,35.96
2023-02-27T23:19:06.120Z,36.07
2023-02-27T23:21:36.168Z,35.90
2023-02-27T23:24:05.956Z,36.15
2023-02-27T23:26:37.945Z,35.93
2023-02-27T23:29:07.946Z,36.04
2023-02-27T23:31:37.118Z,36.02
2023-02-27T23:34:06.254Z,36.00
2023-02-27T23:36:34.571Z,35.82
2023-02-27T23:39:03.931Z,35.81
2023-02-27T23:41:32.374Z,35.94
2023-02-27T23:44:01.585Z,35.97
2023-02-27T23:46:31.663Z,36.07
2023-02-27T23:49:00.289Z,36.04
2023-02-27T23:51:30.457Z,35.95
2023-02-27T23:53:59.244Z,35.96
2023-02-27T23:56:29.456Z,35.92
2023-02-27T23:58:59.720Z,35.87
